sensor_id;sensor_type;location;lat;lon;timestamp;P1;durP1;ratioP1;P2;durP2;ratioP2
37365;SDS011;23239;51.504;7.456;2024-02-21T00:00:00;21.3;;;10.8;;
37365;SDS011;23239;51.504;7.456;2024-02-21T00:01:00;21.3;;;10.8;;
37365;SDS011;23239;51.504;7.456;2024-02-21T00:02:00;28.0;;;10.8;;
37365;SDS011;23239;51.504;7.456;2024-02-21T00:03:00;28.0;;;10.8;;
37365;SDS011;23239;51.504;7.456;2024-02-21T00:04:00;28.0;;;10.8;;
37365;SDS011;23239;51.504;7.456;2024-02-21T00:05:00;28.0;;;10.8;;
37365;SDS011;23239;51.504;7.456;2024-02-21T00:06:00;28.0;;;10.8;;
37365;SDS011;23239;51.504;7.456;2024-02-21T00:07:00;29.2;;;11.5;;
37365;SDS011;23239;51.504;7.456;2024-02-21T00:08:01;29.2;;;11.5;;
37365;SDS011;23239;51.504;7.456;2024-02-21T00:09:00;29.2;;;11.5;;
37365;SDS011;23239;51.504;7.456;2024-02-21T00:10:00;29.2;;;11.5;;
37365;SDS011;23239;51.504;7.456;2024-02-21T00:11:00;29.2;;;11.5;;
37365;SDS011;23239;51.504;7.456;2024-02-21T00:12:00;24.6;;;11.0;;
37365;SDS011;23239;51.504;7.456;2024-02-21T00:13:00;24.6;;;11.0;;
37365;SDS011;23239;51.504;7.456;2024-02-21T00:14:00;24.6;;;11.0;;
37365;SDS011;23239;51.504;7.456;2024-02-21T00:15:00;24.6;;;11.0;;
37365;SDS011;23239;51.504;7.456;2024-02-21T00:16:00;24.6;;;11.0;;
37365;SDS011;23239;51.504;7.456;2024-02-21T00:17:00;23.9;;;10.3;;
37365;SDS011;23239;51.504;7.456;2024-02-21T00:18:00;23.9;;;10.3;;
37365;SDS011;23239;51.504;7.456;2024-02-21T00:19:00;23.9;;;10.3;;
37365;SDS011;23239;51.504;7.456;2024-02-21T00:20:00;23.9;;;10.3;;
37365;SDS011;23239;51.504;7.456;2024-02-21T00:21:00;23.9;;;10.3;;
37365;SDS011;23239;51.504;7.456;2024-02-21T00:22:00;24.2;;;10.3;;
37365;SDS011;23239;51.504;7.456;2024-02-21T00:23:00;24.2;;;10.3;;
37365;SDS011;23239;51.504;7.456;2024-02-21T00:24:00;24.2;;;10.3;;
37365;SDS011;23239;51.504;7.456;2024-02-21T00:25:00;24.2;;;10.3;;
37365;SDS011;23239;51.504;7.456;2024-02-21T00:26:00;24.2;;;10.3;;
37365;SDS011;23239;51.504;7.456;2024-02-21T00:27:00;27.6;;;11.3;;
37365;SDS011;23239;51.504;7.456;2024-02-21T00:28:00;27.6;;;11.3;;
37365;SDS011;23239;51.504;7.456;2024-02-21T00:29:00;27.6;;;11.3;;
37365;SDS011;23239;51.504;7.456;2024-02-21T00:30:00;27.6;;;11.3;;
37365;SDS011;23239;51.504;7.456;2024-02-21T00:31:00;27.6;;;11.3;;
37365;SDS011;23239;51.504;7.456;2024-02-21T00:32:00;26.3;;;11.0;;
37365;SDS011;23239;51.504;7.456;2024-02-21T00:33:00;26.3;;;11.0;;
37365;SDS011;23239;51.504;7.456;2024-02-21T00:34:00;26.3;;;11.0;;
37365;SDS011;23239;51.504;7.456;2024-02-21T00:35:00;26.3;;;11.0;;
37365;SDS011;23239;51.504;7.456;2024-02-21T00:36:00;26.3;;;11.0;;
37365;SDS011;23239;51.504;7.456;2024-02-21T00:37:00;27.0;;;11.1;;
37365;SDS011;23239;51.504;7.456;2024-02-21T00:38:00;27.0;;;11.1;;
37365;SDS011;23239;51.504;7.456;2024-02-21T00:39:00;27.0;;;11.1;;
37365;SDS011;23239;51.504;7.456;2024-02-21T00:40:00;27.0;;;11.1;;
37365;SDS011;23239;51.504;7.456;2024-02-21T00:41:00;27.0;;;11.1;;
37365;SDS011;23239;51.504;7.456;2024-02-21T00:42:00;25.3;;;11.3;;
37365;SDS011;23239;51.504;7.456;2024-02-21T00:43:00;25.3;;;11.3;;
37365;SDS011;23239;51.504;7.456;2024-02-21T00:44:00;25.3;;;11.3;;
37365;SDS011;23239;51.504;7.456;2024-02-21T00:45:00;25.3;;;11.3;;
37365;SDS011;23239;51.504;7.456;2024-02-21T00:46:00;25.3;;;11.3;;
37365;SDS011;23239;51.504;7.456;2024-02-21T00:47:00;27.3;;;11.3;;
37365;SDS011;23239;51.504;7.456;2024-02-21T00:48:00;27.3;;;11.3;;
37365;SDS011;23239;51.504;7.456;2024-02-21T00:49:00;27.3;;;11.3;;
37365;SDS011;23239;51.504;7.456;2024-02-21T00:50:00;27.3;;;11.3;;
37365;SDS011;23239;51.504;7.456;2024-02-21T00:51:00;27.3;;;11.3;;
37365;SDS011;23239;51.504;7.456;2024-02-21T00:52:00;22.9;;;10.4;;
37365;SDS011;23239;51.504;7.456;2024-02-21T00:53:00;22.9;;;10.4;;
37365;SDS011;23239;51.504;7.456;2024-02-21T00:54:00;22.9;;;10.4;;
37365;SDS011;23239;51.504;7.456;2024-02-21T00:55:00;22.9;;;10.4;;
37365;SDS011;23239;51.504;7.456;2024-02-21T00:56:00;22.9;;;10.4;;
37365;SDS011;23239;51.504;7.456;2024-02-21T00:57:00;26.4;;;11.3;;
37365;SDS011;23239;51.504;7.456;2024-02-21T00:58:00;26.4;;;11.3;;
37365;SDS011;23239;51.504;7.456;2024-02-21T00:59:00;26.4;;;11.3;;
37365;SDS011;23239;51.504;7.456;2024-02-21T01:00:00;26.4;;;11.3;;
37365;SDS011;23239;51.504;7.456;2024-02-21T01:01:00;26.4;;;11.3;;
37365;SDS011;23239;51.504;7.456;2024-02-21T01:02:00;25.3;;;10.3;;
37365;SDS011;23239;51.504;7.456;2024-02-21T01:03:00;25.3;;;10.3;;
37365;SDS011;23239;51.504;7.456;2024-02-21T01:04:00;25.3;;;10.3;;
37365;SDS011;23239;51.504;7.456;2024-02-21T01:05:00;25.3;;;10.3;;
37365;SDS011;23239;51.504;7.456;2024-02-21T01:06:00;25.3;;;10.3;;
37365;SDS011;23239;51.504;7.456;2024-02-21T01:07:00;22.4;;;11.2;;
37365;SDS011;23239;51.504;7.456;2024-02-21T01:08:00;22.4;;;11.2;;
37365;SDS011;23239;51.504;7.456;2024-02-21T01:09:00;22.4;;;11.2;;
37365;SDS011;23239;51.504;7.456;2024-02-21T01:10:00;22.4;;;11.2;;
37365;SDS011;23239;51.504;7.456;2024-02-21T01:11:00;22.4;;;11.2;;
37365;SDS011;23239;51.504;7.456;2024-02-21T01:12:00;26.7;;;11.5;;
37365;SDS011;23239;51.504;7.456;2024-02-21T01:13:00;26.7;;;11.5;;
37365;SDS011;23239;51.504;7.456;2024-02-21T01:14:00;26.7;;;11.5;;
37365;SDS011;23239;51.504;7.456;2024-02-21T01:15:00;26.7;;;11.5;;
37365;SDS011;23239;51.504;7.456;2024-02-21T01:16:00;26.7;;;11.5;;
37365;SDS011;23239;51.504;7.456;2024-02-21T01:17:00;22.8;;;10.9;;
37365;SDS011;23239;51.504;7.456;2024-02-21T01:18:00;22.8;;;10.9;;
37365;SDS011;23239;51.504;7.456;2024-02-21T01:19:00;22.8;;;10.9;;
37365;SDS011;23239;51.504;7.456;2024-02-21T01:20:00;22.8;;;10.9;;
37365;SDS011;23239;51.504;7.456;2024-02-21T01:21:00;22.8;;;10.9;;
37365;SDS011;23239;51.504;7.456;2024-02-21T01:22:00;25.6;;;10.9;;
37365;SDS011;23239;51.504;7.456;2024-02-21T01:23:00;25.6;;;10.9;;
37365;SDS011;23239;51.504;7.456;2024-02-21T01:24:00;25.6;;;10.9;;
37365;SDS011;23239;51.504;7.456;2024-02-21T01:25:00;25.6;;;10.9;;
37365;SDS011;23239;51.504;7.456;2024-02-21T01:26:00;25.6;;;10.9;;
37365;SDS011;23239;51.504;7.456;2024-02-21T01:27:00;23.0;;;10.3;;
37365;SDS011;23239;51.504;7.456;2024-02-21T01:28:00;23.0;;;10.3;;
37365;SDS011;23239;51.504;7.456;2024-02-21T01:29:00;23.0;;;10.3;;
37365;SDS011;23239;51.504;7.456;2024-02-21T01:30:00;23.0;;;10.3;;
37365;SDS011;23239;51.504;7.456;2024-02-21T01:31:00;23.0;;;10.3;;
37365;SDS011;23239;51.504;7.456;2024-02-21T01:32:00;25.5;;;11.1;;
37365;SDS011;23239;51.504;7.456;2024-02-21T01:33:00;25.5;;;11.1;;
37365;SDS011;23239;51.504;7.456;2024-02-21T01:34:00;25.5;;;11.1;;
37365;SDS011;23239;51.504;7.456;2024-02-21T01:35:00;25.5;;;11.1;;
37365;SDS011;23239;51.504;7.456;2024-02-21T01:36:00;25.5;;;11.1;;
37365;SDS011;23239;51.504;7.456;2024-02-21T01:37:00;21.9;;;9.7;;
37365;SDS011;23239;51.504;7.456;2024-02-21T01:38:00;21.9;;;9.7;;
37365;SDS011;23239;51.504;7.456;2024-02-21T01:39:00;21.9;;;9.7;;
37365;SDS011;23239;51.504;7.456;2024-02-21T01:40:00;21.9;;;9.7;;
37365;SDS011;23239;51.504;7.456;2024-02-21T01:41:00;21.9;;;9.7;;
37365;SDS011;23239;51.504;7.456;2024-02-21T01:42:00;20.9;;;10.2;;
37365;SDS011;23239;51.504;7.456;2024-02-21T01:43:00;20.9;;;10.2;;
37365;SDS011;23239;51.504;7.456;2024-02-21T01:44:00;20.9;;;10.2;;
37365;SDS011;23239;51.504;7.456;2024-02-21T01:45:00;20.9;;;10.2;;
37365;SDS011;23239;51.504;7.456;2024-02-21T01:46:00;20.9;;;10.2;;
37365;SDS011;23239;51.504;7.456;2024-02-21T01:47:00;26.7;;;11.9;;
37365;SDS011;23239;51.504;7.456;2024-02-21T01:48:00;26.7;;;11.9;;
37365;SDS011;23239;51.504;7.456;2024-02-21T01:49:00;26.7;;;11.9;;
37365;SDS011;23239;51.504;7.456;2024-02-21T01:50:00;26.7;;;11.9;;
37365;SDS011;23239;51.504;7.456;2024-02-21T01:51:00;26.7;;;11.9;;
37365;SDS011;23239;51.504;7.456;2024-02-21T01:52:00;23.5;;;10.2;;
37365;SDS011;23239;51.504;7.456;2024-02-21T01:53:00;23.5;;;10.2;;
37365;SDS011;23239;51.504;7.456;2024-02-21T01:54:00;23.5;;;10.2;;
37365;SDS011;23239;51.504;7.456;2024-02-21T01:55:00;23.5;;;10.2;;
37365;SDS011;23239;51.504;7.456;2024-02-21T01:56:00;23.5;;;10.2;;
37365;SDS011;23239;51.504;7.456;2024-02-21T01:57:00;30.1;;;12.1;;
37365;SDS011;23239;51.504;7.456;2024-02-21T01:58:00;30.1;;;12.1;;
37365;SDS011;23239;51.504;7.456;2024-02-21T01:59:00;30.1;;;12.1;;
37365;SDS011;23239;51.504;7.456;2024-02-21T02:00:00;30.1;;;12.1;;
37365;SDS011;23239;51.504;7.456;2024-02-21T02:01:00;30.1;;;12.1;;
37365;SDS011;23239;51.504;7.456;2024-02-21T02:02:00;24.3;;;10.9;;
37365;SDS011;23239;51.504;7.456;2024-02-21T02:03:00;24.3;;;10.9;;
37365;SDS011;23239;51.504;7.456;2024-02-21T02:04:00;24.3;;;10.9;;
37365;SDS011;23239;51.504;7.456;2024-02-21T03:22:00;24.0;;;9.8;;
37365;SDS011;23239;51.504;7.456;2024-02-21T03:23:00;24.0;;;9.8;;
37365;SDS011;23239;51.504;7.456;2024-02-21T03:24:00;24.0;;;9.8;;
37365;SDS011;23239;51.504;7.456;2024-02-21T03:25:00;24.0;;;9.8;;
37365;SDS011;23239;51.504;7.456;2024-02-21T03:26:00;24.0;;;9.8;;
37365;SDS011;23239;51.504;7.456;2024-02-21T03:27:00;18.7;;;8.5;;
37365;SDS011;23239;51.504;7.456;2024-02-21T03:28:00;18.7;;;8.5;;
37365;SDS011;23239;51.504;7.456;2024-02-21T03:29:00;18.7;;;8.5;;
37365;SDS011;23239;51.504;7.456;2024-02-21T03:30:00;18.7;;;8.5;;
37365;SDS011;23239;51.504;7.456;2024-02-21T03:31:00;18.7;;;8.5;;
37365;SDS011;23239;51.504;7.456;2024-02-21T03:32:00;23.1;;;9.0;;
37365;SDS011;23239;51.504;7.456;2024-02-21T03:33:00;23.1;;;9.0;;
37365;SDS011;23239;51.504;7.456;2024-02-21T03:34:00;23.1;;;9.0;;
37365;SDS011;23239;51.504;7.456;2024-02-21T03:35:00;23.1;;;9.0;;
37365;SDS011;23239;51.504;7.456;2024-02-21T03:36:00;23.1;;;9.0;;
37365;SDS011;23239;51.504;7.456;2024-02-21T03:37:00;23.0;;;9.6;;
37365;SDS011;23239;51.504;7.456;2024-02-21T03:38:00;23.0;;;9.6;;
37365;SDS011;23239;51.504;7.456;2024-02-21T03:39:00;23.0;;;9.6;;
37365;SDS011;23239;51.504;7.456;2024-02-21T03:40:00;23.0;;;9.6;;
37365;SDS011;23239;51.504;7.456;2024-02-21T03:41:00;23.0;;;9.6;;
37365;SDS011;23239;51.504;7.456;2024-02-21T03:42:00;22.4;;;9.4;;
37365;SDS011;23239;51.504;7.456;2024-02-21T03:43:00;22.4;;;9.4;;
37365;SDS011;23239;51.504;7.456;2024-02-21T03:44:00;22.4;;;9.4;;
37365;SDS011;23239;51.504;7.456;2024-02-21T03:45:00;22.4;;;9.4;;
37365;SDS011;23239;51.504;7.456;2024-02-21T03:46:00;22.4;;;9.4;;
37365;SDS011;23239;51.504;7.456;2024-02-21T03:47:00;18.6;;;8.5;;
37365;SDS011;23239;51.504;7.456;2024-02-21T03:48:00;18.6;;;8.5;;
37365;SDS011;23239;51.504;7.456;2024-02-21T03:49:00;18.6;;;8.5;;
37365;SDS011;23239;51.504;7.456;2024-02-21T03:50:00;18.6;;;8.5;;
37365;SDS011;23239;51.504;7.456;2024-02-21T03:51:00;18.6;;;8.5;;
37365;SDS011;23239;51.504;7.456;2024-02-21T03:52:00;22.5;;;8.9;;
37365;SDS011;23239;51.504;7.456;2024-02-21T03:53:00;22.5;;;8.9;;
37365;SDS011;23239;51.504;7.456;2024-02-21T03:54:00;22.5;;;8.9;;
37365;SDS011;23239;51.504;7.456;2024-02-21T03:55:01;22.5;;;8.9;;
37365;SDS011;23239;51.504;7.456;2024-02-21T03:56:01;22.5;;;8.9;;
37365;SDS011;23239;51.504;7.456;2024-02-21T03:57:00;20.7;;;8.6;;
37365;SDS011;23239;51.504;7.456;2024-02-21T03:58:00;20.7;;;8.6;;
37365;SDS011;23239;51.504;7.456;2024-02-21T03:59:00;20.7;;;8.6;;
37365;SDS011;23239;51.504;7.456;2024-02-21T04:00:00;20.7;;;8.6;;
37365;SDS011;23239;51.504;7.456;2024-02-21T04:01:00;20.7;;;8.6;;
37365;SDS011;23239;51.504;7.456;2024-02-21T04:02:00;18.7;;;8.8;;
37365;SDS011;23239;51.504;7.456;2024-02-21T04:03:00;18.7;;;8.8;;
37365;SDS011;23239;51.504;7.456;2024-02-21T04:04:00;18.7;;;8.8;;
37365;SDS011;23239;51.504;7.456;2024-02-21T04:05:00;18.7;;;8.8;;
37365;SDS011;23239;51.504;7.456;2024-02-21T04:06:00;18.7;;;8.8;;
37365;SDS011;23239;51.504;7.456;2024-02-21T04:07:00;22.4;;;9.4;;
37365;SDS011;23239;51.504;7.456;2024-02-21T04:08:02;22.4;;;9.4;;
37365;SDS011;23239;51.504;7.456;2024-02-21T04:09:00;22.4;;;9.4;;
37365;SDS011;23239;51.504;7.456;2024-02-21T04:10:00;22.4;;;9.4;;
37365;SDS011;23239;51.504;7.456;2024-02-21T04:11:00;22.4;;;9.4;;
37365;SDS011;23239;51.504;7.456;2024-02-21T04:12:00;18.9;;;8.9;;
37365;SDS011;23239;51.504;7.456;2024-02-21T04:13:00;18.9;;;8.9;;
37365;SDS011;23239;51.504;7.456;2024-02-21T04:14:00;18.9;;;8.9;;
37365;SDS011;23239;51.504;7.456;2024-02-21T04:15:00;18.9;;;8.9;;
37365;SDS011;23239;51.504;7.456;2024-02-21T04:16:00;18.9;;;8.9;;
37365;SDS011;23239;51.504;7.456;2024-02-21T04:17:00;20.4;;;8.9;;
37365;SDS011;23239;51.504;7.456;2024-02-21T04:18:00;20.4;;;8.9;;
37365;SDS011;23239;51.504;7.456;2024-02-21T04:19:00;20.4;;;8.9;;
37365;SDS011;23239;51.504;7.456;2024-02-21T04:20:02;20.4;;;8.9;;
37365;SDS011;23239;51.504;7.456;2024-02-21T04:21:00;20.4;;;8.9;;
37365;SDS011;23239;51.504;7.456;2024-02-21T04:22:00;17.1;;;8.2;;
37365;SDS011;23239;51.504;7.456;2024-02-21T04:23:00;17.1;;;8.2;;
37365;SDS011;23239;51.504;7.456;2024-02-21T04:24:00;17.1;;;8.2;;
37365;SDS011;23239;51.504;7.456;2024-02-21T04:25:00;17.1;;;8.2;;
37365;SDS011;23239;51.504;7.456;2024-02-21T04:26:00;17.1;;;8.2;;
37365;SDS011;23239;51.504;7.456;2024-02-21T04:27:00;20.9;;;8.9;;
37365;SDS011;23239;51.504;7.456;2024-02-21T04:28:00;20.9;;;8.9;;
37365;SDS011;23239;51.504;7.456;2024-02-21T04:29:00;20.9;;;8.9;;
37365;SDS011;23239;51.504;7.456;2024-02-21T04:30:00;20.9;;;8.9;;
37365;SDS011;23239;51.504;7.456;2024-02-21T04:31:00;20.9;;;8.9;;
37365;SDS011;23239;51.504;7.456;2024-02-21T04:32:01;17.6;;;8.0;;
37365;SDS011;23239;51.504;7.456;2024-02-21T04:33:00;17.6;;;8.0;;
37365;SDS011;23239;51.504;7.456;2024-02-21T04:34:00;17.6;;;8.0;;
37365;SDS011;23239;51.504;7.456;2024-02-21T04:35:00;17.6;;;8.0;;
37365;SDS011;23239;51.504;7.456;2024-02-21T04:36:00;17.6;;;8.0;;
37365;SDS011;23239;51.504;7.456;2024-02-21T04:37:00;20.9;;;8.7;;
37365;SDS011;23239;51.504;7.456;2024-02-21T04:38:00;20.9;;;8.7;;
37365;SDS011;23239;51.504;7.456;2024-02-21T04:39:00;20.9;;;8.7;;
37365;SDS011;23239;51.504;7.456;2024-02-21T04:40:00;20.9;;;8.7;;
37365;SDS011;23239;51.504;7.456;2024-02-21T04:41:00;20.9;;;8.7;;
37365;SDS011;23239;51.504;7.456;2024-02-21T04:42:00;21.5;;;8.4;;
37365;SDS011;23239;51.504;7.456;2024-02-21T04:43:00;21.5;;;8.4;;
37365;SDS011;23239;51.504;7.456;2024-02-21T04:44:00;21.5;;;8.4;;
37365;SDS011;23239;51.504;7.456;2024-02-21T04:45:00;21.5;;;8.4;;
37365;SDS011;23239;51.504;7.456;2024-02-21T04:46:00;21.5;;;8.4;;
37365;SDS011;23239;51.504;7.456;2024-02-21T04:47:00;19.1;;;8.8;;
37365;SDS011;23239;51.504;7.456;2024-02-21T04:48:00;19.1;;;8.8;;
37365;SDS011;23239;51.504;7.456;2024-02-21T04:49:00;19.1;;;8.8;;
37365;SDS011;23239;51.504;7.456;2024-02-21T04:50:00;19.1;;;8.8;;
37365;SDS011;23239;51.504;7.456;2024-02-21T04:51:00;19.1;;;8.8;;
37365;SDS011;23239;51.504;7.456;2024-02-21T04:52:00;17.4;;;8.6;;
37365;SDS011;23239;51.504;7.456;2024-02-21T04:53:00;17.4;;;8.6;;
37365;SDS011;23239;51.504;7.456;2024-02-21T04:54:00;17.4;;;8.6;;
37365;SDS011;23239;51.504;7.456;2024-02-21T04:55:00;17.4;;;8.6;;
37365;SDS011;23239;51.504;7.456;2024-02-21T04:56:00;17.4;;;8.6;;
37365;SDS011;23239;51.504;7.456;2024-02-21T04:57:00;19.0;;;7.9;;
37365;SDS011;23239;51.504;7.456;2024-02-21T04:58:00;19.0;;;7.9;;
37365;SDS011;23239;51.504;7.456;2024-02-21T04:59:00;19.0;;;7.9;;
37365;SDS011;23239;51.504;7.456;2024-02-21T05:00:00;19.0;;;7.9;;
37365;SDS011;23239;51.504;7.456;2024-02-21T05:01:00;19.0;;;7.9;;
37365;SDS011;23239;51.504;7.456;2024-02-21T05:02:00;18.9;;;8.0;;
37365;SDS011;23239;51.504;7.456;2024-02-21T05:03:00;18.9;;;8.0;;
37365;SDS011;23239;51.504;7.456;2024-02-21T05:04:00;18.9;;;8.0;;
37365;SDS011;23239;51.504;7.456;2024-02-21T05:05:00;18.9;;;8.0;;
37365;SDS011;23239;51.504;7.456;2024-02-21T05:06:00;18.9;;;8.0;;
37365;SDS011;23239;51.504;7.456;2024-02-21T05:07:00;22.6;;;8.6;;
37365;SDS011;23239;51.504;7.456;2024-02-21T05:08:00;22.6;;;8.6;;
37365;SDS011;23239;51.504;7.456;2024-02-21T05:09:00;22.6;;;8.6;;
37365;SDS011;23239;51.504;7.456;2024-02-21T05:10:00;22.6;;;8.6;;
37365;SDS011;23239;51.504;7.456;2024-02-21T05:11:00;22.6;;;8.6;;
37365;SDS011;23239;51.504;7.456;2024-02-21T05:12:00;18.2;;;8.1;;
37365;SDS011;23239;51.504;7.456;2024-02-21T05:13:00;18.2;;;8.1;;
37365;SDS011;23239;51.504;7.456;2024-02-21T05:14:00;18.2;;;8.1;;
37365;SDS011;23239;51.504;7.456;2024-02-21T05:15:00;18.2;;;8.1;;
37365;SDS011;23239;51.504;7.456;2024-02-21T05:16:00;18.2;;;8.1;;
37365;SDS011;23239;51.504;7.456;2024-02-21T05:17:00;23.7;;;8.3;;
37365;SDS011;23239;51.504;7.456;2024-02-21T05:18:00;23.7;;;8.3;;
37365;SDS011;23239;51.504;7.456;2024-02-21T05:19:00;23.7;;;8.3;;
37365;SDS011;23239;51.504;7.456;2024-02-21T05:20:00;23.7;;;8.3;;
37365;SDS011;23239;51.504;7.456;2024-02-21T05:21:00;23.7;;;8.3;;
37365;SDS011;23239;51.504;7.456;2024-02-21T05:22:00;20.4;;;7.4;;
37365;SDS011;23239;51.504;7.456;2024-02-21T05:23:00;20.4;;;7.4;;
37365;SDS011;23239;51.504;7.456;2024-02-21T05:24:00;20.4;;;7.4;;
37365;SDS011;23239;51.504;7.456;2024-02-21T05:25:00;20.4;;;7.4;;
37365;SDS011;23239;51.504;7.456;2024-02-21T05:26:00;20.4;;;7.4;;
37365;SDS011;23239;51.504;7.456;2024-02-21T05:27:00;19.8;;;8.3;;
37365;SDS011;23239;51.504;7.456;2024-02-21T05:28:00;19.8;;;8.3;;
37365;SDS011;23239;51.504;7.456;2024-02-21T05:29:00;19.8;;;8.3;;
37365;SDS011;23239;51.504;7.456;2024-02-21T05:30:00;19.8;;;8.3;;
37365;SDS011;23239;51.504;7.456;2024-02-21T05:31:00;19.8;;;8.3;;
37365;SDS011;23239;51.504;7.456;2024-02-21T05:32:00;19.7;;;7.9;;
37365;SDS011;23239;51.504;7.456;2024-02-21T05:33:03;19.7;;;7.9;;
37365;SDS011;23239;51.504;7.456;2024-02-21T05:34:00;19.7;;;7.9;;
37365;SDS011;23239;51.504;7.456;2024-02-21T05:35:00;19.7;;;7.9;;
37365;SDS011;23239;51.504;7.456;2024-02-21T05:36:00;19.7;;;7.9;;
37365;SDS011;23239;51.504;7.456;2024-02-21T05:37:00;17.1;;;7.9;;
37365;SDS011;23239;51.504;7.456;2024-02-21T05:38:00;17.1;;;7.9;;
37365;SDS011;23239;51.504;7.456;2024-02-21T05:39:00;17.1;;;7.9;;
37365;SDS011;23239;51.504;7.456;2024-02-21T05:40:00;17.1;;;7.9;;
37365;SDS011;23239;51.504;7.456;2024-02-21T05:41:00;17.1;;;7.9;;
37365;SDS011;23239;51.504;7.456;2024-02-21T05:42:00;18.0;;;7.6;;
37365;SDS011;23239;51.504;7.456;2024-02-21T05:43:00;18.0;;;7.6;;
37365;SDS011;23239;51.504;7.456;2024-02-21T05:44:00;18.0;;;7.6;;
37365;SDS011;23239;51.504;7.456;2024-02-21T05:45:00;18.0;;;7.6;;
37365;SDS011;23239;51.504;7.456;2024-02-21T05:46:00;18.0;;;7.6;;
37365;SDS011;23239;51.504;7.456;2024-02-21T05:47:00;14.8;;;6.9;;
37365;SDS011;23239;51.504;7.456;2024-02-21T05:48:00;14.8;;;6.9;;
37365;SDS011;23239;51.504;7.456;2024-02-21T05:49:00;14.8;;;6.9;;
37365;SDS011;23239;51.504;7.456;2024-02-21T05:50:00;14.8;;;6.9;;
37365;SDS011;23239;51.504;7.456;2024-02-21T05:51:01;14.8;;;6.9;;
37365;SDS011;23239;51.504;7.456;2024-02-21T05:52:00;17.8;;;6.7;;
37365;SDS011;23239;51.504;7.456;2024-02-21T05:53:00;17.8;;;6.7;;
37365;SDS011;23239;51.504;7.456;2024-02-21T05:54:00;17.8;;;6.7;;
37365;SDS011;23239;51.504;7.456;2024-02-21T05:55:00;17.8;;;6.7;;
37365;SDS011;23239;51.504;7.456;2024-02-21T05:56:00;17.8;;;6.7;;
37365;SDS011;23239;51.504;7.456;2024-02-21T05:57:00;18.7;;;7.3;;
37365;SDS011;23239;51.504;7.456;2024-02-21T05:58:00;18.7;;;7.3;;
37365;SDS011;23239;51.504;7.456;2024-02-21T05:59:00;18.7;;;7.3;;
37365;SDS011;23239;51.504;7.456;2024-02-21T06:00:02;18.7;;;7.3;;
37365;SDS011;23239;51.504;7.456;2024-02-21T06:01:00;18.7;;;7.3;;
37365;SDS011;23239;51.504;7.456;2024-02-21T06:02:00;19.4;;;7.7;;
37365;SDS011;23239;51.504;7.456;2024-02-21T06:03:00;19.4;;;7.7;;
37365;SDS011;23239;51.504;7.456;2024-02-21T06:04:00;19.4;;;7.7;;
37365;SDS011;23239;51.504;7.456;2024-02-21T06:05:00;19.4;;;7.7;;
37365;SDS011;23239;51.504;7.456;2024-02-21T06:06:00;19.4;;;7.7;;
37365;SDS011;23239;51.504;7.456;2024-02-21T06:07:00;18.1;;;7.0;;
37365;SDS011;23239;51.504;7.456;2024-02-21T06:08:00;18.1;;;7.0;;
37365;SDS011;23239;51.504;7.456;2024-02-21T06:09:00;18.1;;;7.0;;
37365;SDS011;23239;51.504;7.456;2024-02-21T06:10:01;18.1;;;7.0;;
37365;SDS011;23239;51.504;7.456;2024-02-21T06:11:00;18.1;;;7.0;;
37365;SDS011;23239;51.504;7.456;2024-02-21T06:12:00;16.2;;;6.2;;
37365;SDS011;23239;51.504;7.456;2024-02-21T06:13:00;16.2;;;6.2;;
37365;SDS011;23239;51.504;7.456;2024-02-21T06:14:00;16.2;;;6.2;;
37365;SDS011;23239;51.504;7.456;2024-02-21T06:15:00;16.2;;;6.2;;
37365;SDS011;23239;51.504;7.456;2024-02-21T06:16:00;16.2;;;6.2;;
37365;SDS011;23239;51.504;7.456;2024-02-21T06:17:00;18.6;;;6.6;;
37365;SDS011;23239;51.504;7.456;2024-02-21T06:18:00;18.6;;;6.6;;
37365;SDS011;23239;51.504;7.456;2024-02-21T06:19:00;18.6;;;6.6;;
37365;SDS011;23239;51.504;7.456;2024-02-21T06:20:00;18.6;;;6.6;;
37365;SDS011;23239;51.504;7.456;2024-02-21T06:21:00;18.6;;;6.6;;
37365;SDS011;23239;51.504;7.456;2024-02-21T06:22:00;12.5;;;5.8;;
37365;SDS011;23239;51.504;7.456;2024-02-21T06:23:00;12.5;;;5.8;;
37365;SDS011;23239;51.504;7.456;2024-02-21T06:24:00;12.5;;;5.8;;
37365;SDS011;23239;51.504;7.456;2024-02-21T06:25:00;12.5;;;5.8;;
37365;SDS011;23239;51.504;7.456;2024-02-21T06:26:00;12.5;;;5.8;;
37365;SDS011;23239;51.504;7.456;2024-02-21T06:27:00;15.6;;;6.8;;
37365;SDS011;23239;51.504;7.456;2024-02-21T06:28:00;15.6;;;6.8;;
37365;SDS011;23239;51.504;7.456;2024-02-21T06:29:00;15.6;;;6.8;;
37365;SDS011;23239;51.504;7.456;2024-02-21T06:30:00;15.6;;;6.8;;
37365;SDS011;23239;51.504;7.456;2024-02-21T06:31:00;15.6;;;6.8;;
37365;SDS011;23239;51.504;7.456;2024-02-21T06:32:00;14.5;;;6.0;;
37365;SDS011;23239;51.504;7.456;2024-02-21T06:33:00;14.5;;;6.0;;
37365;SDS011;23239;51.504;7.456;2024-02-21T06:34:00;14.5;;;6.0;;
37365;SDS011;23239;51.504;7.456;2024-02-21T06:35:00;14.5;;;6.0;;
37365;SDS011;23239;51.504;7.456;2024-02-21T06:36:00;14.5;;;6.0;;
37365;SDS011;23239;51.504;7.456;2024-02-21T06:37:00;14.2;;;5.3;;
37365;SDS011;23239;51.504;7.456;2024-02-21T06:38:00;14.2;;;5.3;;
37365;SDS011;23239;51.504;7.456;2024-02-21T06:39:00;14.2;;;5.3;;
37365;SDS011;23239;51.504;7.456;2024-02-21T06:40:00;14.2;;;5.3;;
37365;SDS011;23239;51.504;7.456;2024-02-21T06:41:00;14.2;;;5.3;;
37365;SDS011;23239;51.504;7.456;2024-02-21T06:42:00;13.2;;;5.7;;
37365;SDS011;23239;51.504;7.456;2024-02-21T06:43:00;13.2;;;5.7;;
37365;SDS011;23239;51.504;7.456;2024-02-21T06:44:00;13.2;;;5.7;;
37365;SDS011;23239;51.504;7.456;2024-02-21T06:45:00;13.2;;;5.7;;
37365;SDS011;23239;51.504;7.456;2024-02-21T06:46:00;13.2;;;5.7;;
37365;SDS011;23239;51.504;7.456;2024-02-21T06:47:00;11.7;;;5.2;;
37365;SDS011;23239;51.504;7.456;2024-02-21T06:48:00;11.7;;;5.2;;
37365;SDS011;23239;51.504;7.456;2024-02-21T06:49:00;11.7;;;5.2;;
37365;SDS011;23239;51.504;7.456;2024-02-21T06:50:00;11.7;;;5.2;;
37365;SDS011;23239;51.504;7.456;2024-02-21T06:51:00;11.7;;;5.2;;
37365;SDS011;23239;51.504;7.456;2024-02-21T06:52:00;12.2;;;4.9;;
37365;SDS011;23239;51.504;7.456;2024-02-21T06:53:00;12.2;;;4.9;;
37365;SDS011;23239;51.504;7.456;2024-02-21T06:54:00;12.2;;;4.9;;
37365;SDS011;23239;51.504;7.456;2024-02-21T06:55:00;12.2;;;4.9;;
37365;SDS011;23239;51.504;7.456;2024-02-21T06:56:00;12.2;;;4.9;;
37365;SDS011;23239;51.504;7.456;2024-02-21T06:57:00;12.4;;;4.9;;
37365;SDS011;23239;51.504;7.456;2024-02-21T06:58:00;12.4;;;4.9;;
37365;SDS011;23239;51.504;7.456;2024-02-21T06:59:00;12.4;;;4.9;;
37365;SDS011;23239;51.504;7.456;2024-02-21T07:00:00;12.4;;;4.9;;
37365;SDS011;23239;51.504;7.456;2024-02-21T07:01:00;12.4;;;4.9;;
37365;SDS011;23239;51.504;7.456;2024-02-21T07:02:00;10.0;;;4.1;;
37365;SDS011;23239;51.504;7.456;2024-02-21T07:03:00;10.0;;;4.1;;
37365;SDS011;23239;51.504;7.456;2024-02-21T07:04:00;10.0;;;4.1;;
37365;SDS011;23239;51.504;7.456;2024-02-21T07:05:00;10.0;;;4.1;;
37365;SDS011;23239;51.504;7.456;2024-02-21T07:06:00;10.0;;;4.1;;
37365;SDS011;23239;51.504;7.456;2024-02-21T07:07:00;10.2;;;4.4;;
37365;SDS011;23239;51.504;7.456;2024-02-21T07:08:00;10.2;;;4.4;;
37365;SDS011;23239;51.504;7.456;2024-02-21T07:09:00;10.2;;;4.4;;
37365;SDS011;23239;51.504;7.456;2024-02-21T07:10:00;10.2;;;4.4;;
37365;SDS011;23239;51.504;7.456;2024-02-21T07:11:00;10.2;;;4.4;;
37365;SDS011;23239;51.504;7.456;2024-02-21T07:12:00;9.1;;;4.1;;
37365;SDS011;23239;51.504;7.456;2024-02-21T07:13:00;9.1;;;4.1;;
37365;SDS011;23239;51.504;7.456;2024-02-21T07:14:00;9.1;;;4.1;;
37365;SDS011;23239;51.504;7.456;2024-02-21T07:15:00;9.1;;;4.1;;
37365;SDS011;23239;51.504;7.456;2024-02-21T07:16:00;9.1;;;4.1;;
37365;SDS011;23239;51.504;7.456;2024-02-21T07:17:00;9.6;;;4.1;;
37365;SDS011;23239;51.504;7.456;2024-02-21T07:18:00;9.6;;;4.1;;
37365;SDS011;23239;51.504;7.456;2024-02-21T07:19:00;9.6;;;4.1;;
37365;SDS011;23239;51.504;7.456;2024-02-21T07:20:00;9.6;;;4.1;;
37365;SDS011;23239;51.504;7.456;2024-02-21T07:21:00;9.6;;;4.1;;
37365;SDS011;23239;51.504;7.456;2024-02-21T07:22:00;12.0;;;4.4;;